createdAt,value
2018-10-11T00:02:28.150Z,14.67
2018-10-11T00:04:56.793Z,15.37
2018-10-11T00:07:25.714Z,15.00
2018-10-11T00:09:54.318Z,19.27
2018-10-11T00:12:22.849Z,14.47
2018-10-11T00:14:51.356Z,13.93
2018-10-11T00:17:19.886Z,16.23
2018-10-11T00:19:48.456Z,13.87
2018-10-11T00:22:16.941Z,16.27
2018-10-11T00:24:45.477Z,14.30
2018-10-11T00:27:14.018Z,15.40
2018-10-11T00:29:42.562Z,15.07
2018-10-11T00:32:11.088Z,13.53
2018-10-11T00:34:39.655Z,16.97
2018-10-11T00:37:08.173Z,13.70
2018-10-11T00:39:36.780Z,16.43
2018-10-11T00:42:05.310Z,15.00
2018-10-11T00:44:33.879Z,14.93
2018-10-11T00:47:02.366Z,14.13
2018-10-11T00:49:30.963Z,15.83
2018-10-11T00:51:59.419Z,18.57
2018-10-11T00:54:27.909Z,14.97
2018-10-11T00:56:56.362Z,15.70
2018-10-11T00:59:24.966Z,15.00
2018-10-11T01:01:53.473Z,15.93
2018-10-11T01:04:21.973Z,14.27
2018-10-11T01:06:50.457Z,14.93
2018-10-11T01:09:19.054Z,15.57
2018-10-11T01:11:47.537Z,16.07
2018-10-11T01:14:16.069Z,18.83
2018-10-11T01:16:44.636Z,16.20
2018-10-11T01:19:13.129Z,14.93
2018-10-11T01:21:41.638Z,15.10
2018-10-11T01:24:10.106Z,16.00
2018-10-11T01:26:38.645Z,16.43
2018-10-11T01:29:07.187Z,18.87
2018-10-11T01:31:35.674Z,18.30
2018-10-11T01:34:04.183Z,16.33
2018-10-11T01:36:32.705Z,16.67
2018-10-11T01:39:01.202Z,16.10
2018-10-11T01:41:29.752Z,17.93
2018-10-11T01:43:58.270Z,17.63
2018-10-11T01:46:26.822Z,16.60
2018-10-11T01:48:55.378Z,16.83
2018-10-11T01:51:23.980Z,20.10
2018-10-11T01:53:52.469Z,17.10
2018-10-11T01:56:20.959Z,17.67
2018-10-11T01:58:49.578Z,15.93
2018-10-11T02:01:18.183Z,18.13
2018-10-11T02:03:46.705Z,17.40
2018-10-11T02:06:15.214Z,22.80
2018-10-11T02:08:43.790Z,20.23
2018-10-11T02:11:12.384Z,16.03
2018-10-11T02:13:40.875Z,16.67
2018-10-11T02:16:09.484Z,17.17
2018-10-11T02:18:37.975Z,23.03
2018-10-11T02:21:06.825Z,19.20
2018-10-11T02:23:35.406Z,17.07
2018-10-11T02:26:03.973Z,18.10
2018-10-11T02:28:32.477Z,18.27
2018-10-11T02:31:01.071Z,17.27
2018-10-11T02:33:29.573Z,16.80
2018-10-11T02:35:58.227Z,16.87
2018-10-11T02:38:26.747Z,17.00
2018-10-11T02:40:55.307Z,19.13
2018-10-11T02:43:23.742Z,19.13
2018-10-11T02:45:52.256Z,21.43
2018-10-11T02:48:20.742Z,19.23
2018-10-11T02:50:49.251Z,21.30
2018-10-11T02:53:17.776Z,19.63
2018-10-11T02:55:46.448Z,18.63
2018-10-11T02:58:26.032Z,18.10
2018-10-11T03:00:54.626Z,21.27
2018-10-11T03:03:25.461Z,18.60
2018-10-11T03:05:54.242Z,17.40
2018-10-11T03:08:23.434Z,17.97
2018-10-11T03:10:52.017Z,17.70
2018-10-11T03:13:21.001Z,17.80
2018-10-11T03:15:49.539Z,18.40
2018-10-11T03:18:18.085Z,18.80
2018-10-11T03:20:46.592Z,19.57
2018-10-11T03:23:15.831Z,18.83
2018-10-11T03:25:45.446Z,18.80
2018-10-11T03:28:15.451Z,17.93
2018-10-11T03:30:44.436Z,18.17
2018-10-11T03:33:13.867Z,19.77
2018-10-11T03:35:43.428Z,17.73
2018-10-11T03:38:12.281Z,19.13
2018-10-11T03:40:40.816Z,21.00
2018-10-11T03:43:09.264Z,19.00
2018-10-11T03:45:37.749Z,19.00
2018-10-11T03:48:06.266Z,19.57
2018-10-11T03:50:34.732Z,18.03
2018-10-11T03:53:03.359Z,22.87
2018-10-11T03:55:31.863Z,20.17
2018-10-11T03:58:00.388Z,19.47
2018-10-11T04:00:28.957Z,21.97
2018-10-11T04:02:57.581Z,17.83
2018-10-11T04:07:42.583Z,18.60
2018-10-11T04:10:11.037Z,19.57
2018-10-11T04:12:39.540Z,20.30
2018-10-11T04:15:08.091Z,23.23
2018-10-11T04:17:36.662Z,21.90
2018-10-11T04:20:05.188Z,20.97
2018-10-11T04:22:33.723Z,20.50
2018-10-11T04:25:02.199Z,20.27
2018-10-11T04:27:30.745Z,19.70
2018-10-11T04:29:59.286Z,21.27
2018-10-11T04:32:27.751Z,20.83
2018-10-11T04:34:56.245Z,19.47
2018-10-11T04:37:24.792Z,21.10
2018-10-11T04:39:53.285Z,18.67
2018-10-11T04:42:21.812Z,18.67
2018-10-11T04:44:50.313Z,22.87
2018-10-11T04:47:18.885Z,24.40
2018-10-11T04:49:47.373Z,22.47
2018-10-11T04:52:15.980Z,23.53
2018-10-11T04:54:44.453Z,24.67
2018-10-11T04:57:13.034Z,23.57
2018-10-11T04:59:41.581Z,20.30
2018-10-11T05:02:10.486Z,23.00
2018-10-11T05:04:38.997Z,21.10
2018-10-11T05:07:07.665Z,22.60
2018-10-11T05:09:36.226Z,21.37
2018-10-11T05:12:04.781Z,21.43
2018-10-11T05:14:33.730Z,23.50
2018-10-11T05:17:02.278Z,25.33
2018-10-11T05:19:30.962Z,22.73
2018-10-11T05:21:59.487Z,27.53
2018-10-11T05:24:28.102Z,28.33
2018-10-11T05:26:56.826Z,22.80
2018-10-11T05:29:25.682Z,23.33
2018-10-11T05:31:55.234Z,23.60
2018-10-11T05:34:23.816Z,26.53
2018-10-11T05:36:52.361Z,27.70
2018-10-11T05:39:21.630Z,27.23
2018-10-11T05:41:50.238Z,26.07
2018-10-11T05:44:18.772Z,24.67
2018-10-11T05:46:47.374Z,23.50
2018-10-11T05:49:15.989Z,23.70
2018-10-11T05:51:44.570Z,22.93
2018-10-11T05:54:13.253Z,25.77
2018-10-11T05:56:43.008Z,25.10
2018-10-11T05:59:11.743Z,22.03
2018-10-11T06:01:40.271Z,21.83
2018-10-11T06:04:10.372Z,25.40
2018-10-11T06:06:38.971Z,21.33
2018-10-11T06:09:08.962Z,23.27
2018-10-11T06:11:37.533Z,25.80
2018-10-11T06:14:06.276Z,25.17
2018-10-11T06:16:34.957Z,28.43
2018-10-11T06:19:03.550Z,29.47
2018-10-11T06:21:32.239Z,26.47
2018-10-11T06:24:01.061Z,29.30
2018-10-11T06:26:29.765Z,32.13
2018-10-11T06:28:58.408Z,23.70
2018-10-11T06:31:26.961Z,25.20
2018-10-11T06:33:55.538Z,53.83
2018-10-11T06:36:24.703Z,26.17
2018-10-11T06:38:53.760Z,25.63
2018-10-11T06:41:22.289Z,25.30
2018-10-11T06:43:50.900Z,22.13
2018-10-11T06:46:19.478Z,29.00
2018-10-11T06:48:48.094Z,23.67
2018-10-11T06:51:16.718Z,24.57
2018-10-11T06:53:45.255Z,24.93
2018-10-11T06:56:13.827Z,28.80
2018-10-11T06:58:42.286Z,27.73
2018-10-11T07:01:10.872Z,22.60
2018-10-11T07:03:39.388Z,28.97
2018-10-11T07:06:08.145Z,33.33
2018-10-11T07:08:36.669Z,26.10
2018-10-11T07:11:05.239Z,24.63
2018-10-11T07:13:33.663Z,28.73
2018-10-11T07:16:02.209Z,25.13
2018-10-11T07:18:30.751Z,27.60
2018-10-11T07:20:59.173Z,30.37
2018-10-11T07:23:27.722Z,27.90
2018-10-11T07:25:56.306Z,26.57
2018-10-11T07:28:24.718Z,25.77
2018-10-11T07:30:53.152Z,32.97
2018-10-11T07:33:21.622Z,38.43
2018-10-11T07:35:50.120Z,28.00
2018-10-11T07:38:24.969Z,33.60
2018-10-11T07:40:53.569Z,29.77
2018-10-11T07:43:21.949Z,28.60
2018-10-11T07:45:50.654Z,27.43
2018-10-11T07:48:19.229Z,28.83
2018-10-11T07:50:47.717Z,28.20
2018-10-11T07:53:16.333Z,26.80
2018-10-11T07:55:44.833Z,28.37
2018-10-11T07:58:13.407Z,25.33
2018-10-11T08:00:46.492Z,26.90
2018-10-11T08:03:15.022Z,26.70
2018-10-11T08:05:43.493Z,25.90
2018-10-11T08:08:12.070Z,23.87
2018-10-11T08:10:40.711Z,24.77
2018-10-11T08:13:09.098Z,25.20
2018-10-11T08:15:37.530Z,23.73
2018-10-11T08:18:06.526Z,24.47
2018-10-11T08:20:35.068Z,29.97
2018-10-11T08:23:03.609Z,27.37
2018-10-11T08:25:32.502Z,26.03
2018-10-11T08:28:00.635Z,22.53
2018-10-11T08:30:29.298Z,25.17
2018-10-11T08:32:58.233Z,22.93
2018-10-11T08:35:27.180Z,26.70
2018-10-11T08:37:55.780Z,27.80
2018-10-11T08:40:24.118Z,25.90
2018-10-11T08:42:52.594Z,24.90
2018-10-11T08:45:21.097Z,23.73
2018-10-11T08:47:49.726Z,26.37
2018-10-11T08:50:18.185Z,26.10
2018-10-11T08:52:48.079Z,26.90
2018-10-11T08:55:16.553Z,28.57
2018-10-11T08:57:45.143Z,30.80
2018-10-11T09:00:13.754Z,24.10
2018-10-11T09:02:42.411Z,24.93
2018-10-11T09:05:10.879Z,24.40
2018-10-11T09:07:39.353Z,47.03
2018-10-11T09:10:09.206Z,39.40
2018-10-11T09:12:37.904Z,35.33
2018-10-11T09:15:07.120Z,26.87
2018-10-11T09:17:35.717Z,30.20
2018-10-11T09:20:04.196Z,25.60
2018-10-11T09:22:32.753Z,25.63
2018-10-11T09:25:01.413Z,22.60
2018-10-11T09:27:30.087Z,27.73
2018-10-11T09:29:58.649Z,23.10
2018-10-11T09:32:27.211Z,23.57
2018-10-11T09:34:55.773Z,28.00
2018-10-11T09:37:24.351Z,25.13
2018-10-11T09:39:52.932Z,26.47
2018-10-11T09:42:21.430Z,22.73
2018-10-11T09:44:50.101Z,29.70
2018-10-11T09:47:18.605Z,28.50
2018-10-11T09:49:47.092Z,31.63
2018-10-11T09:52:15.645Z,25.90
2018-10-11T09:54:44.274Z,27.33
2018-10-11T09:57:16.037Z,24.23
2018-10-11T09:59:44.629Z,34.23
2018-10-11T10:02:13.756Z,29.40
2018-10-11T10:04:45.326Z,30.47
2018-10-11T10:07:13.953Z,28.30
2018-10-11T10:09:43.267Z,27.70
2018-10-11T10:12:12.233Z,28.90
2018-10-11T10:14:41.420Z,24.60
2018-10-11T10:17:11.588Z,24.23
2018-10-11T10:19:40.401Z,29.50
2018-10-11T10:22:08.939Z,25.13
2018-10-11T10:24:37.477Z,26.77
2018-10-11T10:27:11.244Z,26.37
2018-10-11T10:29:39.705Z,24.60
2018-10-11T10:32:08.573Z,28.43
2018-10-11T10:34:37.058Z,26.70
2018-10-11T10:37:05.751Z,26.00
2018-10-11T10:39:34.332Z,25.40
2018-10-11T10:42:02.954Z,27.10
2018-10-11T10:44:33.513Z,26.53
2018-10-11T10:47:02.119Z,25.07
2018-10-11T10:49:34.324Z,28.60
2018-10-11T10:52:02.909Z,26.00
2018-10-11T10:54:32.771Z,32.27
2018-10-11T10:57:01.983Z,25.80
2018-10-11T10:59:30.526Z,22.60
2018-10-11T11:02:00.286Z,22.50
2018-10-11T11:04:28.891Z,21.27
2018-10-11T11:06:57.485Z,28.00
2018-10-11T11:09:26.060Z,24.30
2018-10-11T11:11:54.553Z,25.43
2018-10-11T11:14:23.136Z,34.23
2018-10-11T11:16:51.600Z,24.10
2018-10-11T11:19:20.115Z,26.13
2018-10-11T11:21:48.605Z,28.23
2018-10-11T11:24:17.181Z,23.37
2018-10-11T11:26:47.253Z,22.97
2018-10-11T11:29:15.836Z,27.10
2018-10-11T11:31:44.261Z,22.37
2018-10-11T11:34:12.930Z,27.13
2018-10-11T11:36:41.398Z,24.60
2018-10-11T11:39:10.366Z,23.03
2018-10-11T11:41:39.159Z,26.70
2018-10-11T11:44:07.811Z,24.33
2018-10-11T11:46:36.372Z,30.43
2018-10-11T11:49:04.962Z,24.83
2018-10-11T11:51:33.490Z,22.10
2018-10-11T11:54:02.163Z,30.40
2018-10-11T11:56:30.710Z,36.30
2018-10-11T11:58:59.311Z,26.37
2018-10-11T12:01:27.870Z,23.47
2018-10-11T12:03:56.470Z,23.70
2018-10-11T12:06:25.032Z,30.33
2018-10-11T12:08:53.788Z,22.57
2018-10-11T12:11:22.434Z,23.40
2018-10-11T12:13:51.450Z,25.60
2018-10-11T12:16:20.353Z,23.60
2018-10-11T12:18:49.257Z,26.90
2018-10-11T12:21:18.200Z,28.67
2018-10-11T12:23:47.092Z,23.70
2018-10-11T12:26:16.032Z,24.93
2018-10-11T12:28:45.080Z,38.57
2018-10-11T12:31:13.815Z,25.13
2018-10-11T12:33:42.318Z,25.90
2018-10-11T12:36:10.920Z,22.50
2018-10-11T12:38:39.485Z,20.97
2018-10-11T12:41:08.075Z,21.27
2018-10-11T12:43:36.614Z,23.00
2018-10-11T12:46:05.438Z,23.90
2018-10-11T12:48:33.974Z,23.17
2018-10-11T12:51:03.156Z,26.30
2018-10-11T12:53:39.884Z,20.50
2018-10-11T12:56:05.303Z,22.80
2018-10-11T12:58:33.873Z,20.20
2018-10-11T13:01:02.459Z,25.70
2018-10-11T13:03:31.012Z,26.43
2018-10-11T13:05:59.554Z,25.93
2018-10-11T13:08:28.236Z,26.30
2018-10-11T13:10:56.701Z,20.57
2018-10-11T13:13:25.962Z,24.33
2018-10-11T13:15:54.523Z,24.33
2018-10-11T13:18:23.009Z,23.27
2018-10-11T13:20:51.553Z,26.97
2018-10-11T13:23:20.049Z,22.83
2018-10-11T13:25:48.699Z,23.97
2018-10-11T13:28:17.166Z,22.47
2018-10-11T13:30:45.799Z,23.27
2018-10-11T13:33:14.333Z,25.83
2018-10-11T13:35:43.108Z,27.43
2018-10-11T13:38:11.644Z,20.07
2018-10-11T13:40:40.319Z,26.87
2018-10-11T13:43:08.931Z,22.20
2018-10-11T13:45:37.547Z,22.97
2018-10-11T13:48:06.068Z,20.30
2018-10-11T13:50:37.645Z,21.53
2018-10-11T13:53:06.731Z,23.10
2018-10-11T13:55:35.291Z,26.70
2018-10-11T13:58:03.865Z,24.33
2018-10-11T14:00:32.338Z,23.83
2018-10-11T14:03:01.019Z,26.07
2018-10-11T14:05:30.596Z,24.97
2018-10-11T14:07:59.275Z,25.23
2018-10-11T14:10:27.903Z,23.00
2018-10-11T14:12:56.370Z,21.17
2018-10-11T14:15:24.957Z,24.10
2018-10-11T14:17:53.598Z,21.40
2018-10-11T14:20:22.125Z,25.33
2018-10-11T14:22:50.608Z,20.80
2018-10-11T14:25:19.198Z,21.27
2018-10-11T14:27:47.813Z,20.47
2018-10-11T14:30:16.382Z,20.30
2018-10-11T14:32:44.943Z,23.73
2018-10-11T14:35:13.544Z,21.10
2018-10-11T14:37:42.099Z,19.33
2018-10-11T14:40:10.605Z,20.10
2018-10-11T14:42:39.090Z,20.47
2018-10-11T14:45:07.758Z,21.13
2018-10-11T14:47:36.307Z,18.90
2018-10-11T14:50:04.967Z,25.13
2018-10-11T14:52:33.589Z,22.63
2018-10-11T14:55:02.175Z,22.23
2018-10-11T14:57:30.638Z,22.53
2018-10-11T15:00:00.056Z,21.90
2018-10-11T15:02:28.728Z,20.57
2018-10-11T15:04:57.235Z,20.53
2018-10-11T15:07:25.849Z,21.60
2018-10-11T15:09:54.496Z,19.57
2018-10-11T15:12:23.280Z,22.07
2018-10-11T15:14:51.731Z,20.80
2018-10-11T15:17:20.310Z,20.27
2018-10-11T15:19:48.811Z,22.37
2018-10-11T15:22:17.337Z,21.20
2018-10-11T15:24:45.991Z,24.77
2018-10-11T15:27:14.550Z,22.07
2018-10-11T15:29:43.077Z,20.23
2018-10-11T15:32:11.680Z,18.67
2018-10-11T15:34:40.166Z,27.57
2018-10-11T15:37:08.778Z,23.40
2018-10-11T15:39:37.310Z,20.90
2018-10-11T15:42:06.262Z,19.93
2018-10-11T15:44:34.793Z,23.53
2018-10-11T15:47:03.347Z,24.70
2018-10-11T15:49:31.854Z,22.47
2018-10-11T15:52:00.552Z,24.37
2018-10-11T15:54:28.961Z,23.57
2018-10-11T15:56:57.573Z,19.87
2018-10-11T15:59:26.068Z,21.77
2018-10-11T16:01:54.565Z,21.77
2018-10-11T16:04:22.976Z,27.87
2018-10-11T16:06:51.453Z,21.33
2018-10-11T16:09:20.040Z,23.90
2018-10-11T16:11:48.518Z,21.43
2018-10-11T16:14:17.145Z,21.67
2018-10-11T16:16:45.673Z,22.10
2018-10-11T16:19:14.258Z,25.73
2018-10-11T16:21:42.763Z,27.67
2018-10-11T16:24:11.571Z,27.93
2018-10-11T16:26:41.890Z,22.60
2018-10-11T16:29:10.497Z,23.83
2018-10-11T16:31:38.990Z,21.47
2018-10-11T16:34:07.614Z,20.13
2018-10-11T16:36:36.110Z,18.07
2018-10-11T16:39:06.665Z,20.40
2018-10-11T16:41:35.467Z,24.50
2018-10-11T16:44:04.498Z,18.30
2018-10-11T16:46:33.799Z,18.50
2018-10-11T16:49:02.331Z,21.37
2018-10-11T16:51:31.667Z,17.57
2018-10-11T16:54:00.581Z,18.23
2018-10-11T16:56:29.101Z,20.33
2018-10-11T16:58:57.710Z,24.97
2018-10-11T17:01:26.201Z,29.27
2018-10-11T17:03:54.794Z,18.60
2018-10-11T17:06:23.286Z,17.70
2018-10-11T17:08:51.765Z,15.80
2018-10-11T17:11:20.206Z,18.50
2018-10-11T17:13:48.757Z,18.77
2018-10-11T17:16:17.252Z,19.93
2018-10-11T17:18:45.825Z,17.93
2018-10-11T17:21:14.341Z,18.10
2018-10-11T17:23:42.886Z,18.50
2018-10-11T17:26:13.002Z,18.93
2018-10-11T17:28:45.383Z,18.70
2018-10-11T17:31:13.976Z,25.30
2018-10-11T17:33:42.557Z,18.53
2018-10-11T17:36:11.083Z,18.43
2018-10-11T17:38:39.645Z,22.13
2018-10-11T17:41:08.167Z,20.80
2018-10-11T17:43:36.632Z,18.30
2018-10-11T17:46:05.102Z,20.07
2018-10-11T17:48:33.601Z,18.63
2018-10-11T17:51:02.119Z,17.27
2018-10-11T17:53:30.775Z,31.10
2018-10-11T17:55:59.264Z,20.53
2018-10-11T17:58:27.788Z,18.37
2018-10-11T18:00:56.265Z,18.60
2018-10-11T18:03:25.147Z,17.03
2018-10-11T18:05:53.649Z,17.43
2018-10-11T18:08:22.414Z,19.17
2018-10-11T18:10:51.162Z,18.67
2018-10-11T18:13:19.781Z,19.67
2018-10-11T18:15:48.621Z,19.40
2018-10-11T18:18:18.277Z,19.13
2018-10-11T18:20:46.950Z,19.43
2018-10-11T18:23:15.477Z,18.50
2018-10-11T18:25:44.209Z,20.13
2018-10-11T18:28:12.707Z,20.70
2018-10-11T18:30:41.246Z,18.87
2018-10-11T18:33:09.722Z,20.30
2018-10-11T18:35:38.273Z,18.37
2018-10-11T18:38:06.757Z,18.97
2018-10-11T18:40:35.352Z,17.40
2018-10-11T18:43:03.839Z,19.00
2018-10-11T18:45:32.317Z,18.17
2018-10-11T18:48:01.327Z,18.07
2018-10-11T18:50:29.976Z,17.40
2018-10-11T18:52:58.430Z,18.10
2018-10-11T18:55:27.024Z,24.13
2018-10-11T18:57:55.748Z,30.50
2018-10-11T19:00:24.196Z,26.50
2018-10-11T19:02:52.728Z,24.43
2018-10-11T19:05:21.263Z,19.97
2018-10-11T19:07:49.857Z,20.37
2018-10-11T19:10:18.543Z,22.10
2018-10-11T19:12:47.098Z,19.60
2018-10-11T19:15:15.693Z,20.67
2018-10-11T19:17:44.159Z,26.47
2018-10-11T19:20:12.717Z,33.93
2018-10-11T19:22:41.192Z,26.53
2018-10-11T19:25:09.771Z,20.53
2018-10-11T19:27:38.428Z,18.23
2018-10-11T19:30:07.083Z,19.10
2018-10-11T19:32:35.594Z,26.00
2018-10-11T19:35:04.308Z,30.37
2018-10-11T19:37:33.045Z,36.27
2018-10-11T19:40:01.617Z,33.83
2018-10-11T19:42:30.277Z,31.00
2018-10-11T19:44:58.955Z,24.60
2018-10-11T19:47:27.580Z,27.03
2018-10-11T19:49:56.225Z,27.37
2018-10-11T19:52:24.758Z,21.67
2018-10-11T19:54:53.439Z,32.97
2018-10-11T19:57:22.032Z,32.80
2018-10-11T19:59:50.678Z,33.70
2018-10-11T20:02:19.211Z,23.53
2018-10-11T20:04:53.183Z,20.40
2018-10-11T20:07:21.848Z,28.73
2018-10-11T20:09:50.479Z,25.53
2018-10-11T20:12:19.192Z,21.33
2018-10-11T20:14:47.729Z,21.90
2018-10-11T20:17:16.539Z,23.70
2018-10-11T20:19:45.330Z,30.03
2018-10-11T20:22:14.500Z,36.70
2018-10-11T20:24:43.861Z,33.03
2018-10-11T20:27:12.485Z,30.03
2018-10-11T20:29:41.036Z,35.80
2018-10-11T20:32:10.407Z,36.00
2018-10-11T20:34:39.108Z,43.20
2018-10-11T20:37:07.879Z,37.90
2018-10-11T20:39:36.374Z,36.23
2018-10-11T20:42:05.218Z,46.23
2018-10-11T20:44:33.689Z,47.63
2018-10-11T20:47:02.380Z,36.33
2018-10-11T20:49:31.010Z,36.43
2018-10-11T20:51:59.547Z,37.03
2018-10-11T20:54:28.153Z,28.73
2018-10-11T20:56:56.779Z,26.57
2018-10-11T20:59:25.404Z,23.60
2018-10-11T21:01:53.989Z,23.10
2018-10-11T21:04:22.525Z,23.57
2018-10-11T21:06:51.082Z,23.03
2018-10-11T21:09:19.594Z,27.10
2018-10-11T21:11:48.213Z,35.20
2018-10-11T21:14:16.920Z,30.87
2018-10-11T21:16:45.462Z,29.63
2018-10-11T21:19:13.957Z,28.83
2018-10-11T21:21:42.499Z,25.70
2018-10-11T21:24:11.089Z,25.60
2018-10-11T21:26:39.799Z,23.27
2018-10-11T21:29:08.398Z,25.10
2018-10-11T21:31:36.920Z,28.93
2018-10-11T21:34:06.787Z,25.63
2018-10-11T21:36:36.507Z,26.67
2018-10-11T21:41:50.397Z,23.53
2018-10-11T21:44:18.961Z,25.13
2018-10-11T21:46:47.572Z,26.17
2018-10-11T21:49:16.091Z,23.20
2018-10-11T21:51:44.617Z,24.63
2018-10-11T21:54:13.213Z,24.40
2018-10-11T21:56:41.785Z,26.20
2018-10-11T21:59:10.305Z,22.07
2018-10-11T22:01:39.129Z,20.90
2018-10-11T22:04:07.792Z,20.90
2018-10-11T22:06:36.327Z,23.97
2018-10-11T22:09:05.699Z,25.10
2018-10-11T22:11:34.313Z,25.17
2018-10-11T22:14:02.858Z,27.07
2018-10-11T22:16:31.522Z,21.77
2018-10-11T22:19:00.388Z,27.93
2018-10-11T22:21:28.876Z,26.90
2018-10-11T22:23:57.485Z,25.80
2018-10-11T22:26:27.015Z,20.57
2018-10-11T22:28:56.656Z,24.93
2018-10-11T22:31:25.195Z,21.30
2018-10-11T22:33:53.796Z,22.93
2018-10-11T22:36:22.300Z,21.30
2018-10-11T22:38:51.171Z,22.77
2018-10-11T22:41:20.062Z,22.20
2018-10-11T22:43:48.830Z,22.70
2018-10-11T22:46:17.416Z,26.57
2018-10-11T22:48:45.993Z,39.37
2018-10-11T22:51:14.538Z,27.10
2018-10-11T22:53:43.127Z,28.70
2018-10-11T22:56:11.723Z,24.80
2018-10-11T22:58:40.414Z,23.03
2018-10-11T23:01:08.984Z,25.93
2018-10-11T23:03:37.729Z,20.20
2018-10-11T23:06:07.007Z,24.73
2018-10-11T23:08:37.547Z,24.83
2018-10-11T23:11:06.462Z,21.40
2018-10-11T23:13:35.037Z,22.40
2018-10-11T23:16:03.579Z,23.20
2018-10-11T23:18:32.301Z,20.57
2018-10-11T23:21:00.941Z,22.33
2018-10-11T23:23:29.484Z,21.30
2018-10-11T23:25:58.003Z,18.77
2018-10-11T23:28:26.673Z,20.17
2018-10-11T23:30:55.213Z,18.47
2018-10-11T23:33:23.707Z,18.60
2018-10-11T23:35:52.243Z,20.03
2018-10-11T23:38:20.713Z,20.20
2018-10-11T23:40:49.272Z,18.17
2018-10-11T23:43:17.757Z,23.60
2018-10-11T23:45:46.285Z,24.50
2018-10-11T23:48:14.894Z,19.07
2018-10-11T23:50:43.635Z,16.33
2018-10-11T23:53:12.208Z,17.53
2018-10-11T23:55:40.803Z,18.70
2018-10-11T23:58:09.371Z,18.20
